Time;durP1;ratioP1;P1;durP2;ratioP2;P2;SDS_P1;SDS_P2;PMS_P1;PMS_P2;Temp;Humidity;BMP_temperature;BMP_pressure;BME280_temperature;BME280_humidity;BME280_pressure;Samples;Min_cycle;Max_cycle;Signal;HPM_P1;HPM_P2
2023/06/06 00:02:21;;;;;;;6.93;6.23;;;19.10;99.90;;;;;;4953990;28;20555;-87
2023/06/06 00:04:52;;;;;;;7.10;5.57;;;19.20;99.90;;;;;;4945543;29;20422;-89
2023/06/06 00:07:21;;;;;;;7.07;5.83;;;19.40;99.90;;;;;;4951586;28;20425;-88
2023/06/06 00:09:50;;;;;;;5.87;5.27;;;19.30;99.90;;;;;;4927171;29;20668;-87
2023/06/06 00:12:17;;;;;;;8.43;6.10;;;19.40;99.90;;;;;;4950510;29;20446;-87
2023/06/06 00:14:47;;;;;;;6.60;6.00;;;19.30;99.90;;;;;;4936213;29;20486;-88
2023/06/06 00:17:15;;;;;;;7.00;6.20;;;19.40;99.90;;;;;;4936429;29;20413;-88
2023/06/06 00:19:45;;;;;;;5.90;5.10;;;19.50;99.90;;;;;;4940971;28;20486;-87
2023/06/06 00:22:14;;;;;;;6.47;5.83;;;19.30;99.90;;;;;;4944225;29;20468;-87
2023/06/06 00:35:28;;;;;;;9.20;7.40;;;18.20;99.90;;;;;;5539658;23;20426;-87
2023/06/06 00:37:56;;;;;;;6.07;5.50;;;18.10;99.90;;;;;;5070182;23;20898;-86
2023/06/06 00:40:23;;;;;;;7.40;6.53;;;17.90;99.90;;;;;;4941984;28;20462;-91
2023/06/06 00:42:51;;;;;;;13.17;7.90;;;17.80;99.90;;;;;;5333659;23;20500;-88
2023/06/06 00:45:21;;;;;;;10.20;6.70;;;17.70;99.90;;;;;;5007838;23;20771;-87
2023/06/06 00:47:48;;;;;;;15.27;7.90;;;17.70;99.90;;;;;;4937493;29;20432;-85
2023/06/06 00:50:16;;;;;;;6.53;5.80;;;17.60;99.90;;;;;;4940226;29;20458;-87
2023/06/06 00:52:46;;;;;;;8.43;7.63;;;17.40;99.90;;;;;;4918589;29;20565;-84
2023/06/06 00:55:16;;;;;;;8.10;7.17;;;17.40;99.90;;;;;;4944593;28;20480;-86
2023/06/06 00:57:43;;;;;;;12.87;8.00;;;17.40;99.90;;;;;;4939844;29;20458;-87
2023/06/06 01:00:13;;;;;;;9.17;8.23;;;17.30;99.90;;;;;;4941347;29;20478;-87
2023/06/06 01:02:43;;;;;;;11.70;7.83;;;17.10;99.90;;;;;;4932530;29;20502;-84
2023/06/06 01:07:50;;;;;;;9.20;7.73;;;17.00;99.90;;;;;;5776303;23;20475;-88
2023/06/06 01:10:18;;;;;;;8.50;7.70;;;17.10;99.90;;;;;;5056319;23;20484;-90
2023/06/06 01:13:10;;;;;;;8.83;8.07;;;17.20;99.90;;;;;;4941465;29;20410;-90
2023/06/06 01:15:46;;;;;;;14.37;8.23;;;17.50;99.90;;;;;;4944623;29;20490;-88
2023/06/06 01:18:22;;;;;;;12.63;7.13;;;18.00;99.90;;;;;;4938230;29;20674;-87
2023/06/06 01:20:53;;;;;;;9.07;7.33;;;17.70;99.90;;;;;;4939757;29;20474;-85
2023/06/06 01:23:20;;;;;;;8.57;7.67;;;17.70;99.90;;;;;;4927776;29;20521;-88
2023/06/06 01:25:56;;;;;;;9.00;8.20;;;17.60;99.90;;;;;;4942639;29;20594;-89
2023/06/06 01:28:27;;;;;;;8.23;7.43;;;17.60;99.90;;;;;;4938516;29;20482;-89
2023/06/06 01:30:54;;;;;;;9.37;7.47;;;17.70;99.90;;;;;;4952177;29;20567;-88
2023/06/06 01:47:14;;;;;;;9.10;8.27;;;18.70;99.90;;;;;;4958400;29;20503;-88
2023/06/06 01:50:58;;;;;;;;;;;;;;;;;;;;;
2023/06/06 01:53:57;;;;;;;9.97;8.83;;;18.70;99.90;;;;;;4921930;29;20469;-90
2023/06/06 01:57:08;;;;;;;8.93;8.00;;;18.50;99.90;;;;;;4896922;29;20458;-89
2023/06/06 02:00:17;;;;;;;9.33;8.43;;;18.60;99.90;;;;;;4924448;28;20435;-88
2023/06/06 02:03:12;;;;;;;8.90;8.00;;;18.50;99.90;;;;;;4902105;29;20443;-90
2023/06/06 02:06:03;;;;;;;10.80;9.57;;;18.40;99.90;;;;;;4918538;29;20458;-88
2023/06/06 02:08:44;;;;;;;10.30;7.70;;;18.40;99.90;;;;;;4954513;28;20799;-87
2023/06/06 02:11:26;;;;;;;12.67;8.13;;;18.30;99.90;;;;;;4951493;28;20500;-87
2023/06/06 02:14:00;;;;;;;9.37;8.47;;;18.20;99.90;;;;;;4941184;29;20435;-87
2023/06/06 02:16:48;;;;;;;11.57;9.40;;;18.10;99.90;;;;;;4955834;29;20459;-87
2023/06/06 02:22:35;;;;;;;10.63;9.37;;;17.80;99.90;;;;;;4955912;29;20465;-88
2023/06/06 02:25:15;;;;;;;;;;;;;;;;;;;;;
2023/06/06 02:27:48;;;;;;;9.20;8.27;;;17.70;99.90;;;;;;4963214;28;20419;-88
2023/06/06 02:30:17;;;;;;;13.73;9.53;;;17.60;99.90;;;;;;4982585;28;20520;-88
2023/06/06 02:32:57;;;;;;;9.50;8.50;;;17.60;99.90;;;;;;4953078;28;20454;-88
2023/06/06 02:35:27;;;;;;;13.37;8.57;;;17.50;99.90;;;;;;4964530;29;20447;-88
2023/06/06 02:37:54;;;;;;;9.67;8.67;;;17.40;99.90;;;;;;4956854;28;20512;-89
2023/06/06 02:40:23;;;;;;;9.63;8.63;;;17.10;99.90;;;;;;4961978;28;20454;-85
2023/06/06 02:42:51;;;;;;;9.43;8.53;;;16.60;99.90;;;;;;4958303;28;20424;-86
2023/06/06 02:45:20;;;;;;;9.23;7.93;;;16.60;99.90;;;;;;4965316;28;20438;-88
2023/06/06 02:48:09;;;;;;;9.90;8.50;;;16.40;99.90;;;;;;4965129;29;20624;-87
2023/06/06 02:50:38;;;;;;;10.10;9.20;;;16.30;99.90;;;;;;4968729;28;20591;-89
2023/06/06 02:53:12;;;;;;;11.60;8.20;;;16.20;99.90;;;;;;4966598;28;20442;-85
2023/06/06 02:55:39;;;;;;;9.17;8.23;;;16.10;99.90;;;;;;5081206;23;20464;-86
2023/06/06 02:58:27;;;;;;;11.17;8.80;;;16.10;99.90;;;;;;4975601;28;20463;-87
2023/06/06 03:01:04;;;;;;;8.90;8.17;;;16.00;99.90;;;;;;4966273;28;20435;-88
2023/06/06 03:03:31;;;;;;;9.70;8.70;;;16.00;99.90;;;;;;4969634;29;20460;-86
2023/06/06 03:06:06;;;;;;;9.50;8.60;;;16.10;99.90;;;;;;4968290;28;20452;-86
2023/06/06 03:08:55;;;;;;;11.07;9.13;;;16.00;99.90;;;;;;5268508;23;20933;-89
2023/06/06 03:14:19;;;;;;;11.53;9.67;;;16.40;99.90;;;;;;4945534;29;20450;-89
2023/06/06 03:16:51;;;;;;;11.30;9.53;;;16.40;99.90;;;;;;4948107;29;20470;-88
2023/06/06 03:19:22;;;;;;;10.07;8.80;;;16.60;99.90;;;;;;4946693;29;20554;-86
2023/06/06 03:21:59;;;;;;;13.50;9.50;;;16.40;99.90;;;;;;4945220;29;20472;-86
2023/06/06 03:24:29;;;;;;;9.27;8.37;;;16.40;99.90;;;;;;4959178;28;20451;-85
2023/06/06 03:27:00;;;;;;;10.53;9.63;;;16.40;99.90;;;;;;4939366;29;20449;-86
2023/06/06 03:29:28;;;;;;;10.37;8.73;;;16.10;99.90;;;;;;4938346;29;20493;-82
2023/06/06 03:31:55;;;;;;;12.93;9.33;;;16.00;99.90;;;;;;4950233;29;20432;-83
2023/06/06 03:34:25;;;;;;;12.63;10.70;;;15.90;99.90;;;;;;4946296;29;20453;-85
2023/06/06 03:36:56;;;;;;;16.60;10.43;;;16.00;99.90;;;;;;4942386;29;20438;-86
2023/06/06 03:39:42;;;;;;;12.13;10.33;;;16.20;99.90;;;;;;4946387;29;20612;-87
2023/06/06 03:42:10;;;;;;;11.83;10.83;;;16.10;99.90;;;;;;4940354;29;20493;-87
2023/06/06 03:44:38;;;;;;;11.33;10.03;;;16.20;99.90;;;;;;4940298;29;20449;-83
2023/06/06 03:47:09;;;;;;;10.70;9.70;;;16.30;99.90;;;;;;4941562;29;20453;-85
2023/06/06 03:49:37;;;;;;;11.13;10.03;;;16.30;99.90;;;;;;4944882;29;20460;-84
2023/06/06 03:52:12;;;;;;;13.73;9.90;;;16.00;99.90;;;;;;4950621;28;20518;-86
2023/06/06 03:54:41;;;;;;;15.13;10.80;;;16.10;99.90;;;;;;4944336;29;20426;-85
2023/06/06 03:57:16;;;;;;;10.27;9.37;;;16.10;99.90;;;;;;4942243;29;20652;-85
2023/06/06 03:59:44;;;;;;;10.10;9.30;;;16.10;99.90;;;;;;4940620;29;20442;-85
2023/06/06 04:02:13;;;;;;;13.57;9.87;;;16.20;99.90;;;;;;4949900;29;20440;-82
2023/06/06 04:04:41;;;;;;;9.77;8.87;;;16.10;99.90;;;;;;4950710;29;20513;-83
2023/06/06 04:07:08;;;;;;;9.23;8.37;;;16.30;99.90;;;;;;4951142;28;20444;-87
2023/06/06 04:09:39;;;;;;;8.53;7.20;;;16.40;99.90;;;;;;4953178;28;20483;-88
2023/06/06 04:12:08;;;;;;;9.40;8.50;;;16.40;99.90;;;;;;4952383;28;20433;-87
2023/06/06 04:14:43;;;;;;;8.60;7.80;;;16.40;99.90;;;;;;4951394;29;20450;-84
2023/06/06 04:17:13;;;;;;;7.57;6.87;;;16.50;99.90;;;;;;4957229;28;20472;-85
2023/06/06 04:19:40;;;;;;;9.77;8.77;;;16.50;99.90;;;;;;4953251;29;20466;-83
2023/06/06 04:22:07;;;;;;;9.70;8.80;;;16.30;99.90;;;;;;4944664;29;20448;-86
2023/06/06 04:24:46;;;;;;;8.27;7.50;;;16.40;99.90;;;;;;4946721;29;21036;-87
2023/06/06 04:27:19;;;;;;;9.93;8.00;;;16.40;99.90;;;;;;4946802;29;20457;-84
2023/06/06 04:29:50;;;;;;;15.33;8.80;;;16.70;99.90;;;;;;4944078;29;20797;-86
2023/06/06 04:32:21;;;;;;;9.73;8.83;;;16.90;99.90;;;;;;4949152;29;20424;-86
2023/06/06 04:34:53;;;;;;;9.30;8.40;;;17.20;99.90;;;;;;4950088;28;20454;-86
2023/06/06 04:37:22;;;;;;;10.80;9.57;;;17.30;99.90;;;;;;4945613;29;20481;-85
2023/06/06 04:39:56;;;;;;;10.23;7.77;;;17.40;99.90;;;;;;4946968;29;20420;-86
2023/06/06 04:42:32;;;;;;;12.60;9.40;;;17.50;99.90;;;;;;5167739;23;20699;-86
2023/06/06 04:52:59;;;;;;;15.50;10.03;;;17.80;99.90;;;;;;4932779;29;20452;-86
2023/06/06 04:55:27;;;;;;;15.50;11.00;;;17.70;99.90;;;;;;5079554;23;20814;-82
2023/06/06 04:57:59;;;;;;;10.50;9.33;;;17.60;99.90;;;;;;5095415;23;20494;-78
2023/06/06 05:00:27;;;;;;;10.60;8.93;;;17.10;99.90;;;;;;5192367;23;20524;-85
2023/06/06 05:05:46;;;;;;;9.60;8.73;;;16.70;99.90;;;;;;4937221;29;20526;-86
2023/06/06 05:08:15;;;;;;;14.03;12.30;;;16.60;99.90;;;;;;4939761;29;20437;-87
2023/06/06 05:10:44;;;;;;;13.20;12.03;;;16.50;99.90;;;;;;4937124;29;20429;-85
2023/06/06 05:13:11;;;;;;;13.13;11.77;;;16.40;99.90;;;;;;5247859;23;20489;-83
2023/06/06 05:15:45;;;;;;;13.67;12.27;;;16.40;99.90;;;;;;4937967;29;20474;-85
2023/06/06 05:18:12;;;;;;;14.90;12.77;;;16.40;99.90;;;;;;4943238;29;20428;-83
2023/06/06 05:20:39;;;;;;;14.17;12.77;;;16.20;99.90;;;;;;4943165;29;20625;-88
2023/06/06 05:23:12;;;;;;;14.83;13.33;;;16.30;99.90;;;;;;4941324;29;20428;-81
2023/06/06 05:25:47;;;;;;;13.90;12.50;;;16.20;99.90;;;;;;4929259;29;20577;-86
2023/06/06 05:28:29;;;;;;;13.83;12.37;;;16.30;99.90;;;;;;4940264;28;20578;-84
2023/06/06 05:30:56;;;;;;;15.10;13.60;;;16.30;99.90;;;;;;4943335;29;20993;-83
2023/06/06 05:33:35;;;;;;;13.83;11.73;;;16.30;99.90;;;;;;4941915;29;20463;-86
2023/06/06 05:36:04;;;;;;;14.87;13.50;;;16.30;99.90;;;;;;4910922;29;20463;-84
2023/06/06 05:38:31;;;;;;;18.17;13.30;;;16.40;99.90;;;;;;4938098;29;20473;-85
2023/06/06 05:43:37;;;;;;;12.53;11.30;;;17.00;99.90;;;;;;4958561;23;20472;-81
2023/06/06 05:46:11;;;;;;;13.07;11.97;;;17.10;99.90;;;;;;4940881;28;20518;-90
2023/06/06 05:48:42;;;;;;;20.13;13.57;;;17.30;99.90;;;;;;4940155;29;20482;-83
2023/06/06 05:51:11;;;;;;;14.93;13.53;;;17.50;99.90;;;;;;4946869;29;20462;-89
2023/06/06 05:53:41;;;;;;;14.60;12.17;;;17.70;99.90;;;;;;4948937;28;20694;-81
2023/06/06 05:58:47;;;;;;;12.23;11.10;;;17.80;99.90;;;;;;4922354;29;20537;-88
2023/06/06 06:01:16;;;;;;;10.77;9.80;;;18.20;99.90;;;;;;4917762;29;20474;-83
2023/06/06 06:03:53;;;;;;;10.13;9.17;;;18.60;99.90;;;;;;4918709;29;20488;-86
2023/06/06 06:06:21;;;;;;;10.97;9.87;;;18.50;99.90;;;;;;4922666;29;20421;-86
2023/06/06 06:08:51;;;;;;;17.93;13.20;;;18.60;99.90;;;;;;4919361;29;20450;-86
2023/06/06 06:11:19;;;;;;;12.53;9.67;;;18.80;99.90;;;;;;4921027;29;20781;-85
2023/06/06 06:13:46;;;;;;;9.80;8.73;;;19.00;99.90;;;;;;4917865;29;20438;-83
2023/06/06 06:16:13;;;;;;;10.70;9.60;;;19.10;99.90;;;;;;4915062;29;20516;-86
2023/06/06 06:18:41;;;;;;;10.87;9.77;;;19.40;99.90;;;;;;4931038;29;20454;-85
2023/06/06 06:21:10;;;;;;;9.97;8.97;;;19.70;99.90;;;;;;4919398;29;20434;-86
2023/06/06 06:23:38;;;;;;;9.57;8.67;;;19.70;99.90;;;;;;4919089;29;20431;-86
2023/06/06 06:26:05;;;;;;;12.67;9.37;;;19.40;99.90;;;;;;4918904;29;20511;-88
2023/06/06 06:28:32;;;;;;;9.93;9.00;;;19.60;99.90;;;;;;4927825;29;20429;-83
2023/06/06 06:31:00;;;;;;;14.33;9.60;;;19.80;99.90;;;;;;5032464;23;20468;-83
2023/06/06 06:33:29;;;;;;;9.40;8.50;;;20.00;99.90;;;;;;4958728;28;20477;-83
2023/06/06 06:35:56;;;;;;;11.07;8.67;;;20.10;99.90;;;;;;4958250;29;20544;-86
2023/06/06 06:38:24;;;;;;;11.70;8.23;;;20.20;99.90;;;;;;4953444;29;20982;-85
2023/06/06 06:40:54;;;;;;;10.67;8.67;;;20.20;99.90;;;;;;4945315;29;20418;-85
2023/06/06 06:43:21;;;;;;;11.50;9.40;;;20.00;99.90;;;;;;4950802;29;20425;-84
2023/06/06 06:45:50;;;;;;;8.50;7.77;;;19.90;99.90;;;;;;4958221;28;20479;-81
2023/06/06 06:48:20;;;;;;;9.73;8.83;;;20.00;99.90;;;;;;4957291;29;20413;-89
2023/06/06 06:50:47;;;;;;;8.00;7.30;;;20.10;99.90;;;;;;4952893;29;20538;-86
2023/06/06 06:53:16;;;;;;;9.47;8.57;;;20.20;99.90;;;;;;4955014;29;20516;-85
2023/06/06 06:55:54;;;;;;;10.13;9.33;;;20.30;99.90;;;;;;4950831;29;20447;-84
2023/06/06 06:58:33;;;;;;;8.40;7.53;;;20.60;99.90;;;;;;5048370;23;20512;-87
2023/06/06 07:01:02;;;;;;;10.47;7.93;;;21.00;99.90;;;;;;4960949;28;20728;-83
2023/06/06 07:03:34;;;;;;;8.33;7.63;;;21.00;99.90;;;;;;4936536;29;20889;-88
2023/06/06 07:06:03;;;;;;;11.33;8.30;;;20.90;99.90;;;;;;5084852;23;21008;-86
2023/06/06 07:08:30;;;;;;;9.40;8.47;;;21.30;99.90;;;;;;4959504;29;20454;-85
2023/06/06 07:10:57;;;;;;;9.53;7.43;;;21.90;99.90;;;;;;4962425;28;20812;-85
2023/06/06 07:13:25;;;;;;;14.47;7.77;;;22.00;99.90;;;;;;4929314;29;20443;-85
2023/06/06 07:15:52;;;;;;;8.40;7.70;;;21.60;99.90;;;;;;4945071;29;20455;-86
2023/06/06 07:18:19;;;;;;;8.40;7.73;;;21.20;99.90;;;;;;4954128;28;20446;-84
2023/06/06 07:20:46;;;;;;;12.00;7.60;;;21.30;99.90;;;;;;4960100;28;20453;-84
2023/06/06 07:23:13;;;;;;;11.67;7.70;;;21.40;99.90;;;;;;4965519;28;20480;-84
2023/06/06 07:25:42;;;;;;;9.00;7.10;;;22.00;99.90;;;;;;4948420;29;20556;-87
2023/06/06 07:28:13;;;;;;;9.23;6.57;;;22.50;99.90;;;;;;4941626;28;20427;-84
2023/06/06 07:30:47;;;;;;;7.60;6.10;;;22.50;99.90;;;;;;4953170;29;20792;-87
2023/06/06 07:33:14;;;;;;;6.57;5.77;;;22.40;99.90;;;;;;4968608;28;20440;-83
2023/06/06 07:35:42;;;;;;;7.00;6.10;;;23.10;99.90;;;;;;4960214;29;20450;-84
2023/06/06 07:38:11;;;;;;;8.67;6.40;;;23.60;99.90;;;;;;4958132;28;20460;-84
2023/06/06 07:40:38;;;;;;;8.60;5.73;;;23.40;99.90;;;;;;4962418;29;20419;-85
2023/06/06 07:43:13;;;;;;;6.70;6.10;;;23.70;99.90;;;;;;4960977;28;20933;-83
2023/06/06 07:45:39;;;;;;;8.03;5.63;;;24.50;99.90;;;;;;4955972;28;20433;-85
2023/06/06 07:48:07;;;;;;;6.87;6.17;;;25.30;99.90;;;;;;4963065;29;20512;-83
2023/06/06 07:50:35;;;;;;;7.57;6.40;;;25.30;99.90;;;;;;4954153;28;20451;-85
2023/06/06 07:53:04;;;;;;;9.53;6.80;;;25.60;99.90;;;;;;4955248;29;20861;-82
2023/06/06 07:55:32;;;;;;;7.00;6.33;;;25.40;99.90;;;;;;4962516;29;20427;-86
2023/06/06 07:58:01;;;;;;;10.33;6.33;;;25.20;99.90;;;;;;4961825;28;20449;-83
2023/06/06 08:00:28;;;;;;;6.90;6.30;;;24.80;99.90;;;;;;4959449;28;20457;-83
2023/06/06 08:02:55;;;;;;;7.40;6.67;;;25.10;99.90;;;;;;4951696;28;20421;-84
2023/06/06 08:05:27;;;;;;;6.57;5.97;;;25.30;99.90;;;;;;4963271;29;20476;-87
2023/06/06 08:08:05;;;;;;;10.57;6.17;;;25.20;99.90;;;;;;4945295;29;20451;-83
2023/06/06 08:10:33;;;;;;;6.60;5.37;;;25.70;99.90;;;;;;4946266;29;20668;-84
2023/06/06 08:13:01;;;;;;;6.70;6.10;;;26.20;99.90;;;;;;4950886;28;20449;-82
2023/06/06 08:15:28;;;;;;;8.30;6.00;;;26.60;99.90;;;;;;4957044;28;20446;-82
2023/06/06 08:17:55;;;;;;;6.33;5.73;;;25.80;99.90;;;;;;4961335;28;20573;-84
2023/06/06 08:20:23;;;;;;;6.20;5.70;;;26.60;99.90;;;;;;4952400;29;20517;-83
2023/06/06 08:22:51;;;;;;;6.77;5.20;;;27.10;99.90;;;;;;4947323;28;20449;-82
2023/06/06 08:25:20;;;;;;;7.20;6.03;;;28.30;99.90;;;;;;4949213;29;20454;-86
2023/06/06 08:27:47;;;;;;;6.73;5.30;;;27.30;99.90;;;;;;4960878;28;20556;-80
2023/06/06 08:30:15;;;;;;;6.30;5.57;;;25.90;99.90;;;;;;4941857;29;20450;-83
2023/06/06 08:32:43;;;;;;;6.30;5.70;;;24.90;99.90;;;;;;4949005;29;20651;-83
2023/06/06 08:35:10;;;;;;;11.27;5.80;;;25.40;99.90;;;;;;4948412;29;20817;-83
2023/06/06 08:37:37;;;;;;;8.80;5.90;;;26.20;99.90;;;;;;4951262;29;20554;-87
2023/06/06 08:40:08;;;;;;;7.03;6.33;;;25.50;99.90;;;;;;4961095;28;20488;-87
2023/06/06 08:42:40;;;;;;;5.83;4.40;;;25.10;99.90;;;;;;4943642;29;20439;-84
2023/06/06 08:45:08;;;;;;;6.07;5.47;;;25.30;99.90;;;;;;4954962;28;20475;-85
2023/06/06 08:47:36;;;;;;;7.47;6.50;;;25.60;99.90;;;;;;4952418;29;20432;-83
2023/06/06 08:50:07;;;;;;;5.90;5.40;;;26.20;99.90;;;;;;4955705;29;20464;-84
2023/06/06 08:52:35;;;;;;;6.47;4.70;;;26.50;99.90;;;;;;4943438;29;20722;-84
2023/06/06 08:55:03;;;;;;;7.20;5.33;;;27.10;99.90;;;;;;5068118;23;20505;-83
2023/06/06 08:57:32;;;;;;;5.90;5.07;;;26.50;99.90;;;;;;4947391;29;20662;-85
2023/06/06 09:00:08;;;;;;;5.80;5.30;;;26.20;99.90;;;;;;4944073;29;20544;-86
2023/06/06 09:02:42;;;;;;;6.70;6.10;;;26.80;99.90;;;;;;4963184;29;20465;-84
2023/06/06 09:05:12;;;;;;;6.07;5.47;;;26.40;99.90;;;;;;4962937;29;20732;-84
2023/06/06 09:07:40;;;;;;;7.80;6.10;;;26.20;99.90;;;;;;4966387;29;20463;-84
2023/06/06 09:10:08;;;;;;;10.10;4.90;;;26.40;99.90;;;;;;4952826;29;20441;-84
2023/06/06 09:12:48;;;;;;;7.77;5.83;;;26.60;99.90;;;;;;4964153;29;20437;-80
2023/06/06 09:15:17;;;;;;;6.20;5.60;;;26.60;99.90;;;;;;4967628;28;20456;-84
2023/06/06 09:17:51;;;;;;;5.23;4.70;;;25.50;99.90;;;;;;5022034;23;20511;-82
2023/06/06 09:20:19;;;;;;;5.57;5.10;;;26.20;99.90;;;;;;4954565;28;20781;-86
2023/06/06 09:22:48;;;;;;;6.20;5.60;;;26.80;99.90;;;;;;4952749;29;20464;-86
2023/06/06 09:25:25;;;;;;;5.93;5.43;;;26.60;99.90;;;;;;4956051;28;20464;-86
2023/06/06 09:28:02;;;;;;;7.13;4.60;;;25.90;99.90;;;;;;4951452;29;20453;-83
2023/06/06 09:30:35;;;;;;;5.70;5.20;;;25.10;99.90;;;;;;4956754;28;20729;-87
2023/06/06 09:33:04;;;;;;;5.50;4.83;;;26.10;99.90;;;;;;4954365;28;20446;-83
2023/06/06 09:35:33;;;;;;;5.17;4.77;;;26.40;99.90;;;;;;4954596;29;20420;-86
2023/06/06 09:38:17;;;;;;;6.33;5.63;;;26.90;99.90;;;;;;4965213;28;20485;-82
2023/06/06 09:40:50;;;;;;;5.47;4.97;;;26.60;99.90;;;;;;4965268;28;20540;-83
2023/06/06 09:43:25;;;;;;;5.67;5.10;;;27.00;99.90;;;;;;4967257;28;20508;-86
2023/06/06 09:45:55;;;;;;;5.50;5.00;;;26.20;99.90;;;;;;4951200;29;20446;-86
2023/06/06 09:48:26;;;;;;;5.70;4.87;;;26.20;99.90;;;;;;4951689;29;20516;-84
2023/06/06 09:50:55;;;;;;;6.40;5.07;;;26.50;99.90;;;;;;4963488;28;20465;-82
2023/06/06 09:53:28;;;;;;;11.47;5.53;;;27.00;99.90;;;;;;4962884;28;20453;-84
2023/06/06 09:56:02;;;;;;;6.30;5.70;;;26.90;99.90;;;;;;4958210;29;20450;-83
2023/06/06 09:58:32;;;;;;;5.63;4.43;;;26.60;99.90;;;;;;4951372;28;20434;-86
2023/06/06 10:01:01;;;;;;;5.50;4.60;;;26.70;99.90;;;;;;4954690;28;20445;-81
2023/06/06 10:03:32;;;;;;;5.20;4.70;;;26.90;99.90;;;;;;4962102;28;20795;-83
2023/06/06 10:06:00;;;;;;;5.53;4.73;;;26.90;99.90;;;;;;4954378;28;20453;-83
2023/06/06 10:08:30;;;;;;;5.50;5.00;;;26.40;99.90;;;;;;4953834;29;20457;-85
2023/06/06 10:11:00;;;;;;;5.50;5.10;;;25.80;99.90;;;;;;4962699;28;20436;-85
2023/06/06 10:13:32;;;;;;;4.70;4.20;;;25.90;99.90;;;;;;4955576;28;20416;-80
2023/06/06 10:16:01;;;;;;;7.20;4.60;;;26.10;99.90;;;;;;4975649;28;20429;-86
2023/06/06 10:18:30;;;;;;;4.67;3.90;;;26.50;99.90;;;;;;4954032;28;20493;-85
2023/06/06 10:20:59;;;;;;;4.43;4.03;;;26.00;99.90;;;;;;4960046;29;20469;-87
2023/06/06 10:23:28;;;;;;;4.37;4.03;;;26.20;99.90;;;;;;4953153;28;20449;-83
2023/06/06 10:25:57;;;;;;;6.40;4.73;;;26.20;99.90;;;;;;4957261;29;20454;-84
2023/06/06 10:28:35;;;;;;;5.43;4.93;;;26.00;99.90;;;;;;4949593;29;20457;-84
2023/06/06 10:31:10;;;;;;;7.70;4.67;;;26.20;99.90;;;;;;4965902;28;20500;-86
2023/06/06 10:33:58;;;;;;;5.60;4.60;;;26.80;99.90;;;;;;4960051;29;20704;-84
2023/06/06 10:36:26;;;;;;;4.93;4.53;;;27.00;99.90;;;;;;4961055;28;20441;-85
2023/06/06 10:39:15;;;;;;;8.27;3.80;;;27.70;98.90;;;;;;4956813;28;20445;-85
2023/06/06 10:41:48;;;;;;;5.70;5.20;;;27.80;98.80;;;;;;4954632;29;20441;-86
2023/06/06 10:44:20;;;;;;;4.87;4.40;;;27.60;99.90;;;;;;4964073;28;20445;-83
2023/06/06 10:46:50;;;;;;;21.43;7.70;;;27.40;99.90;;;;;;4966721;28;20565;-86
2023/06/06 10:49:20;;;;;;;8.03;4.30;;;27.20;99.00;;;;;;4963003;29;20497;-85
2023/06/06 10:51:47;;;;;;;7.40;5.13;;;27.10;97.90;;;;;;4949908;29;20453;-83
2023/06/06 10:54:26;;;;;;;11.53;4.67;;;28.00;98.20;;;;;;4958885;28;20449;-82
2023/06/06 10:56:55;;;;;;;5.10;4.60;;;28.40;98.10;;;;;;4976039;28;20564;-85
2023/06/06 10:59:26;;;;;;;5.93;4.70;;;28.50;97.20;;;;;;4945082;29;20466;-86
2023/06/06 11:01:55;;;;;;;8.00;4.70;;;28.60;97.50;;;;;;4957392;28;20469;-86
2023/06/06 11:04:37;;;;;;;8.67;4.70;;;28.60;96.60;;;;;;4963673;29;20445;-81
2023/06/06 11:07:15;;;;;;;7.13;4.77;;;28.10;97.10;;;;;;4960419;28;20441;-86
2023/06/06 11:09:42;;;;;;;9.20;4.70;;;27.60;97.10;;;;;;4960505;29;20450;-86
2023/06/06 11:12:19;;;;;;;6.60;4.33;;;27.70;96.10;;;;;;4952253;29;20442;-84
2023/06/06 11:15:03;;;;;;;7.30;4.60;;;27.60;96.60;;;;;;4966340;28;20788;-85
2023/06/06 11:17:49;;;;;;;4.67;4.27;;;27.80;97.00;;;;;;4964920;29;20505;-86
2023/06/06 11:20:21;;;;;;;9.10;4.77;;;27.70;95.10;;;;;;4961861;29;20689;-84
2023/06/06 11:23:03;;;;;;;6.17;3.87;;;28.00;95.30;;;;;;4956223;28;20765;-83
2023/06/06 11:25:35;;;;;;;4.10;3.70;;;28.70;95.60;;;;;;4962090;28;20484;-80
2023/06/06 11:28:05;;;;;;;10.53;4.37;;;28.90;93.30;;;;;;4984903;23;20485;-82
2023/06/06 11:30:34;;;;;;;13.90;4.87;;;28.80;92.00;;;;;;4968436;28;20438;-81
2023/06/06 11:33:06;;;;;;;5.90;4.67;;;28.90;92.90;;;;;;4962245;29;20460;-82
2023/06/06 11:35:37;;;;;;;6.83;3.90;;;29.40;91.10;;;;;;4961949;28;20433;-82
2023/06/06 11:38:06;;;;;;;5.70;4.27;;;29.60;90.70;;;;;;4968714;28;20452;-82
2023/06/06 11:40:33;;;;;;;6.30;3.83;;;29.50;87.20;;;;;;4961806;28;20861;-81
2023/06/06 11:43:05;;;;;;;3.90;3.40;;;29.40;88.70;;;;;;4966671;29;20425;-86
2023/06/06 11:45:32;;;;;;;4.00;3.53;;;29.20;83.90;;;;;;4953705;28;20464;-87
2023/06/06 11:47:59;;;;;;;4.33;3.70;;;29.10;85.20;;;;;;4956822;29;20461;-80
2023/06/06 11:50:29;;;;;;;4.43;4.03;;;29.30;81.80;;;;;;4943469;29;20928;-81
2023/06/06 11:52:56;;;;;;;4.77;4.30;;;29.50;82.40;;;;;;4951782;29;20446;-85
2023/06/06 11:55:37;;;;;;;3.60;3.40;;;29.20;82.40;;;;;;4954369;29;20471;-81
2023/06/06 11:58:04;;;;;;;5.63;4.40;;;29.00;82.80;;;;;;4942987;28;20473;-81
2023/06/06 12:00:31;;;;;;;4.53;3.63;;;29.50;80.50;;;;;;4955687;28;20442;-82
2023/06/06 12:02:59;;;;;;;8.57;3.57;;;29.50;82.10;;;;;;4953353;28;20446;-83
2023/06/06 12:05:28;;;;;;;3.83;3.53;;;29.60;79.90;;;;;;4958006;28;20453;-81
2023/06/06 12:08:00;;;;;;;5.37;3.37;;;29.50;80.60;;;;;;4946622;29;20435;-84
2023/06/06 12:10:31;;;;;;;3.30;3.10;;;29.10;80.80;;;;;;4958833;29;20500;-83
2023/06/06 12:12:59;;;;;;;4.17;3.80;;;29.30;79.50;;;;;;4951791;28;20687;-82
2023/06/06 12:15:46;;;;;;;4.00;3.70;;;29.50;79.20;;;;;;4958881;28;20674;-84
2023/06/06 12:18:13;;;;;;;4.53;4.13;;;29.80;77.70;;;;;;4950070;28;20485;-84
2023/06/06 12:20:43;;;;;;;10.60;4.00;;;29.90;78.60;;;;;;4949729;29;20509;-81
2023/06/06 12:23:10;;;;;;;6.20;3.67;;;29.80;80.50;;;;;;4952781;29;20456;-83
2023/06/06 12:25:37;;;;;;;5.27;4.30;;;30.10;79.00;;;;;;4948614;29;20453;-82
2023/06/06 12:28:09;;;;;;;4.60;3.70;;;30.20;78.90;;;;;;4956442;28;20692;-83
2023/06/06 12:30:36;;;;;;;4.23;3.83;;;30.70;78.80;;;;;;4953305;28;20438;-82
2023/06/06 12:33:03;;;;;;;4.23;3.93;;;30.80;76.70;;;;;;4956071;29;20450;-83
2023/06/06 12:35:30;;;;;;;4.40;3.70;;;30.90;74.40;;;;;;4951948;29;20434;-83
2023/06/06 12:38:01;;;;;;;3.63;3.20;;;30.60;74.60;;;;;;4948086;29;20747;-83
2023/06/06 12:40:36;;;;;;;5.53;4.07;;;30.40;75.00;;;;;;4961332;29;20504;-81
2023/06/06 12:43:05;;;;;;;4.20;3.80;;;30.10;76.20;;;;;;4952642;28;20452;-82
2023/06/06 12:45:36;;;;;;;3.90;3.50;;;30.10;77.30;;;;;;4956594;29;20453;-80
2023/06/06 12:48:03;;;;;;;3.70;3.40;;;30.40;75.70;;;;;;4970589;28;20460;-79
2023/06/06 12:50:30;;;;;;;4.93;3.80;;;31.00;73.50;;;;;;4972623;28;20428;-80
2023/06/06 12:53:02;;;;;;;5.97;4.70;;;31.40;72.50;;;;;;4971822;28;20736;-81
2023/06/06 12:55:31;;;;;;;4.57;3.67;;;31.10;73.70;;;;;;4969529;28;20535;-80
2023/06/06 12:57:58;;;;;;;5.43;3.37;;;31.00;72.50;;;;;;4962513;28;20477;-81
2023/06/06 13:00:26;;;;;;;4.93;4.03;;;30.80;72.60;;;;;;4957334;28;20445;-86
2023/06/06 13:02:53;;;;;;;4.47;3.60;;;30.60;72.10;;;;;;4950158;29;20449;-83
2023/06/06 13:05:20;;;;;;;7.53;3.47;;;30.20;70.50;;;;;;4950674;28;20573;-82
2023/06/06 13:07:48;;;;;;;3.77;2.80;;;30.20;68.40;;;;;;4945655;28;20450;-82
2023/06/06 13:10:16;;;;;;;4.70;2.93;;;30.50;69.20;;;;;;4956137;29;20452;-82
2023/06/06 13:12:43;;;;;;;3.77;2.90;;;30.80;67.40;;;;;;4953929;29;20461;-83
2023/06/06 13:15:12;;;;;;;6.47;3.53;;;31.30;64.90;;;;;;4956816;28;20517;-83
2023/06/06 13:17:40;;;;;;;4.17;3.27;;;31.10;64.40;;;;;;4979623;28;20480;-83
2023/06/06 13:20:08;;;;;;;3.50;2.93;;;30.40;63.50;;;;;;4968740;28;20426;-83
2023/06/06 13:22:39;;;;;;;3.90;3.23;;;30.40;60.90;;;;;;4959236;29;20457;-84
2023/06/06 13:25:08;;;;;;;3.67;3.33;;;30.60;60.80;;;;;;4959948;28;20531;-84
2023/06/06 13:27:35;;;;;;;3.60;3.30;;;29.80;62.50;;;;;;4958480;28;20461;-85
2023/06/06 13:30:02;;;;;;;3.53;3.23;;;28.60;63.80;;;;;;4958332;28;20458;-81
2023/06/06 13:32:30;;;;;;;7.40;4.10;;;28.20;66.40;;;;;;4948110;28;20805;-86
2023/06/06 13:34:58;;;;;;;4.27;3.90;;;28.40;67.40;;;;;;4952367;28;20453;-83
2023/06/06 13:37:26;;;;;;;3.53;3.23;;;28.50;66.40;;;;;;4957613;29;20468;-84
2023/06/06 13:39:54;;;;;;;4.50;3.30;;;28.60;65.60;;;;;;4958054;28;20455;-84
2023/06/06 13:42:21;;;;;;;3.83;2.97;;;28.20;66.40;;;;;;4952068;28;20512;-82
2023/06/06 13:44:48;;;;;;;4.03;3.33;;;28.20;66.60;;;;;;4951548;29;20416;-84
2023/06/06 13:47:15;;;;;;;3.50;3.20;;;28.20;66.20;;;;;;4951400;29;20762;-81
2023/06/06 13:49:42;;;;;;;3.43;3.13;;;28.40;66.00;;;;;;4953852;29;20457;-84
2023/06/06 13:52:10;;;;;;;6.97;4.13;;;29.00;66.60;;;;;;4962032;29;20445;-85
2023/06/06 13:54:38;;;;;;;3.80;3.50;;;28.70;65.60;;;;;;4954432;28;20449;-85
2023/06/06 13:57:12;;;;;;;5.20;3.50;;;28.10;67.40;;;;;;4949238;29;20456;-81